LTBA/IST METAR and TAF weather

Enter ICAO airport designator
Station Type Date Time Source
LTBA METAR 2020/04/07 15:50 UTC NOAA

LTBA 071550Z 03022G35KT CAVOK 10/02 Q1026 NOSIG


Station Type Date Time Source
LTBA Decoded METAR 2020/04/07 15:50 UTC NOAA

Istanbul / Ataturk, Turkey (LTBA) 40-58N 028-49E 37M
Apr 07, 2020 - 11:50 AM EDT / 2020.04.07 1550 UTC
Wind: from the NNE (030 degrees) at 25 MPH (22 KT) gusting to 40 MPH (35 KT):0
Visibility: greater than 7 mile(s):0
Temperature: 50 F (10 C)
Dew Point: 35 F (2 C)
Relative Humidity: 57%
Pressure (altimeter): 30.30 in. Hg (1026 hPa)
ob: LTBA 071550Z 03022G35KT CAVOK 10/02 Q1026 NOSIG
cycle: 16

Station Type Date Time Source
LTBA TAF 2020/04/07 12:03 UTC NOAA

TAF LTBA 071040Z 0712/0818 05026G36KT CAVOK
BECMG 0814/0818 05016KT SCT030

Example: see airport list